Portada
METAR-TAF:

METAR-TAF

Aeroports :

Vanua Lava, Vanuatu

latitud: 13-51-06S, longitud: 167-32-13E, altitud: 2 m

Observació

L'informe es va fer fa 3 hores i 4 minuts, a les 00:00 UTC
Vent 5 kt del Est/Sud-Est
Temperatura 31°C
Humitat 79%
Pressió 1008 hPa
Visibilitat 10 km o més
Cel ennuvolat a una alçada de 2000 ft

METAR: NVSC 270000Z 12005KT 9999 BKN020 31/27 Q1008

Hora: 14:04 (03:04 UTC)

Pronòstic

L'informe es va fer fa 4 hores i 44 minuts, a les 22:20 UTC
Pronòstic vàlid del 27 a les 00 UTC al 27 a les 24 UTC
Vent 5 kt del Est/Sud-Est
Visibilitat: 9000 m
Núvols disperses a una alçada de 2000 ft
Cel ennuvolat a una alçada de 4500 ft
Cel ennuvolat a una alçada de 1800 ft
xàfecs de pluja

TAF: NVSC 262220Z 2700/2724 12005KT 9999 SCT020 BKN045 INTER 2700/2706 9000 -SHRA BKN018

Observacions i pronòstics meteorològics de més de 4000 aeroports (METAR i TAF).

Les estacions disponibles són els punts grocs i vermells al mapa.

Posi el ratolí al punt desitjat per veure el nom de l'estació.

Feu clic per veure les observacions i els pronòstics meteorològics.

Per canviar el mapa: feu clic els botons verds amb una creu de color negre per apropar; al botó verd amb un guió per allunyar la imatge; o en les fletxes verdes per a mapes adjacents.


METAR-TAF: